Andiamo — WDJ5892 — position and weather

sailwx.info

Track history (hours):
 
Tides and Currents Weather Stations Pressure Air Temp Water Temp Dewpoint Dewpoint Depression Visibility Wind Speed Wind Dir Waves Ship Positions

Andiamo

Owner: Aquatic Sailboat, South Miami, FL. More information available from US FCC via Universal Licensing System.

Last reported at 2017-Nov-19 12:28 UTC. Time now 2017-Nov-21 10:14 UTC.
Position N 25°42' W 080°15'.

Length 15 m.

Type: Sailing vessel. MMSI: 367792280.

Date/timePositionNaut miles runAvg speedWind from/ knotsBaromVisibWave heightAir tempDewpointWater temp
2017-Nov-19 12:28N 25°42' W 080°15'0 0.0
2017-Nov-18 19:54N 25°42' W 080°15'2 5.7
2017-Nov-18 19:30N 25°42' W 080°12'2 4.5
2017-Nov-18 18:58N 25°40' W 080°11'2 3.3
2017-Nov-18 18:30N 25°39' W 080°10'2 3.5
2017-Nov-18 17:59N 25°39' W 080°08'4 7.1
2017-Nov-18 17:29N 25°43' W 080°08'1 1.6
2017-Nov-18 16:50N 25°42' W 080°08'3 2.1
2017-Nov-18 15:30N 25°41' W 080°11'2 3.9
2017-Nov-18 15:00N 25°43' W 080°11'3 1.4
2017-Nov-18 12:34N 25°42' W 080°15'0 0.0
2017-Nov-18 12:25N 25°42' W 080°15'0 0.0
2017-Nov-18 11:58N 25°42' W 080°15'0 0.0
2017-Nov-18 11:04N 25°42' W 080°15'0 0.0
2017-Nov-18 08:37N 25°42' W 080°15'0 0.0
2017-Nov-18 08:22N 25°42' W 080°15'0 0.0
2017-Nov-18 07:43N 25°42' W 080°15'0 0.0
2017-Nov-18 07:28N 25°42' W 080°15'0 0.0
2017-Nov-16 22:40N 25°42' W 080°15'0 0.0
2017-Nov-16 22:28N 25°42' W 080°15'0 0.0
2017-Nov-16 11:28N 25°42' W 080°15'0 0.0
2017-Nov-16 08:52N 25°42' W 080°15'0 0.0
2017-Nov-15 15:34N 25°42' W 080°15'0 0.1
2017-Nov-15 15:28N 25°42' W 080°15'0 0.0
2017-Nov-15 14:58N 25°42' W 080°15'0 0.0
2017-Nov-15 14:16N 25°42' W 080°15'0 0.0
2017-Nov-15 13:01N 25°42' W 080°15'0 0.0
2017-Nov-15 12:55N 25°42' W 080°15'0 0.0
2017-Nov-15 10:49N 25°42' W 080°15'0 0.0
2017-Nov-15 09:01N 25°42' W 080°15'0 0.0
2017-Nov-15 08:46N 25°42' W 080°15'0 0.0
2017-Nov-15 04:58N 25°42' W 080°15'0 0.0
2017-Nov-15 04:19N 25°42' W 080°15'  
Track history (hours):
 
Tides and Currents Weather Stations Pressure Air Temp Water Temp Dewpoint Dewpoint Depression Visibility Wind Speed Wind Dir Waves Ship Positions

Andiamo

Owner: Aquatic Sailboat, South Miami, FL. More information available from US FCC via Universal Licensing System.

Last reported at 2017-Nov-19 12:28 UTC. Time now 2017-Nov-21 10:14 UTC.
Position N 25°42' W 080°15'.

Length 15 m.

Type: Sailing vessel. MMSI: 367792280.

Date/timePositionNaut miles runAvg speedWind from/ knotsBaromVisibWave heightAir tempDewpointWater temp
2017-Nov-19 12:28N 25°42' W 080°15'0 0.0
2017-Nov-18 19:54N 25°42' W 080°15'2 5.7
2017-Nov-18 19:30N 25°42' W 080°12'2 4.5
2017-Nov-18 18:58N 25°40' W 080°11'2 3.3
2017-Nov-18 18:30N 25°39' W 080°10'2 3.5
2017-Nov-18 17:59N 25°39' W 080°08'4 7.1
2017-Nov-18 17:29N 25°43' W 080°08'1 1.6
2017-Nov-18 16:50N 25°42' W 080°08'3 2.1
2017-Nov-18 15:30N 25°41' W 080°11'2 3.9
2017-Nov-18 15:00N 25°43' W 080°11'3 1.4
2017-Nov-18 12:34N 25°42' W 080°15'0 0.0
2017-Nov-18 12:25N 25°42' W 080°15'0 0.0
2017-Nov-18 11:58N 25°42' W 080°15'0 0.0
2017-Nov-18 11:04N 25°42' W 080°15'0 0.0
2017-Nov-18 08:37N 25°42' W 080°15'0 0.0
2017-Nov-18 08:22N 25°42' W 080°15'0 0.0
2017-Nov-18 07:43N 25°42' W 080°15'0 0.0
2017-Nov-18 07:28N 25°42' W 080°15'0 0.0
2017-Nov-16 22:40N 25°42' W 080°15'0 0.0
2017-Nov-16 22:28N 25°42' W 080°15'0 0.0
2017-Nov-16 11:28N 25°42' W 080°15'0 0.0
2017-Nov-16 08:52N 25°42' W 080°15'0 0.0
2017-Nov-15 15:34N 25°42' W 080°15'0 0.1
2017-Nov-15 15:28N 25°42' W 080°15'0 0.0
2017-Nov-15 14:58N 25°42' W 080°15'0 0.0
2017-Nov-15 14:16N 25°42' W 080°15'0 0.0
2017-Nov-15 13:01N 25°42' W 080°15'0 0.0
2017-Nov-15 12:55N 25°42' W 080°15'0 0.0
2017-Nov-15 10:49N 25°42' W 080°15'0 0.0
2017-Nov-15 09:01N 25°42' W 080°15'0 0.0
2017-Nov-15 08:46N 25°42' W 080°15'0 0.0
2017-Nov-15 04:58N 25°42' W 080°15'0 0.0
2017-Nov-15 04:19N 25°42' W 080°15'  

Dump ship's entire track history